createdAt,value
2017-11-17T00:00:06.793Z,0
2017-11-17T00:01:06.731Z,0
2017-11-17T00:02:06.448Z,0
2017-11-17T00:03:06.153Z,0
2017-11-17T00:04:05.868Z,0
2017-11-17T00:05:06.120Z,0
2017-11-17T00:06:06.101Z,0
2017-11-17T00:07:06.355Z,0
2017-11-17T00:08:05.814Z,0
2017-11-17T00:09:06.593Z,0
2017-11-17T00:10:06.339Z,0
2017-11-17T00:11:05.746Z,0
2017-11-17T00:12:05.722Z,0
2017-11-17T00:13:05.714Z,0
2017-11-17T00:14:05.971Z,0
2017-11-17T00:15:06.223Z,0
2017-11-17T00:16:05.660Z,0
2017-11-17T00:17:05.910Z,0
2017-11-17T00:18:05.940Z,0
2017-11-17T00:19:06.152Z,0
2017-11-17T00:20:05.861Z,0
2017-11-17T00:21:06.106Z,0
2017-11-17T00:22:06.093Z,0
2017-11-17T00:23:05.845Z,0
2017-11-17T00:24:06.058Z,0
2017-11-17T00:25:05.510Z,0
2017-11-17T00:26:05.759Z,0
2017-11-17T00:27:06.278Z,0
2017-11-17T00:28:05.766Z,0
2017-11-17T00:29:05.428Z,0
2017-11-17T00:30:05.952Z,0
2017-11-17T00:31:05.392Z,0
2017-11-17T00:32:05.377Z,0
2017-11-17T00:33:05.895Z,0
2017-11-17T00:34:05.608Z,0
2017-11-17T00:35:05.594Z,0
2017-11-17T00:36:05.311Z,0
2017-11-17T00:37:05.827Z,0
2017-11-17T00:38:05.267Z,0
2017-11-17T00:39:05.247Z,0
2017-11-17T00:40:05.511Z,0
2017-11-17T00:41:05.504Z,0
2017-11-17T00:42:05.735Z,0
2017-11-17T00:43:06.058Z,0
2017-11-17T00:44:05.437Z,0
2017-11-17T00:45:05.145Z,0
2017-11-17T00:46:05.402Z,0
2017-11-17T00:47:05.664Z,0
2017-11-17T00:48:05.413Z,0
2017-11-17T00:49:05.343Z,0
2017-11-17T00:50:05.317Z,0
2017-11-17T00:51:05.511Z,0
2017-11-17T00:52:05.290Z,0
2017-11-17T00:53:05.010Z,0
2017-11-17T00:54:05.579Z,0
2017-11-17T00:55:05.821Z,0
2017-11-17T00:56:05.240Z,0
2017-11-17T00:57:04.938Z,0
2017-11-17T00:58:05.192Z,0
2017-11-17T00:59:05.443Z,0
2017-11-17T01:00:05.153Z,0
2017-11-17T01:01:05.413Z,0
2017-11-17T01:02:05.125Z,0
2017-11-17T01:03:04.852Z,0
2017-11-17T01:04:05.619Z,0
2017-11-17T01:05:05.333Z,0
2017-11-17T01:06:05.056Z,0
2017-11-17T01:07:05.302Z,0
2017-11-17T01:08:04.737Z,0
2017-11-17T01:09:04.990Z,0
2017-11-17T01:10:05.248Z,0
2017-11-17T01:11:05.233Z,0
2017-11-17T01:12:05.270Z,0
2017-11-17T01:13:05.209Z,0
2017-11-17T01:14:05.443Z,0
2017-11-17T01:15:04.634Z,0
2017-11-17T01:16:05.135Z,0
2017-11-17T01:17:05.130Z,0
2017-11-17T01:18:04.569Z,0
2017-11-17T01:19:04.877Z,0
2017-11-17T01:20:04.809Z,0
2017-11-17T01:21:05.066Z,0
2017-11-17T01:22:04.765Z,0
2017-11-17T01:23:04.772Z,0
2017-11-17T01:24:04.756Z,0
2017-11-17T01:25:04.990Z,0
2017-11-17T01:26:04.713Z,0
2017-11-17T01:27:05.223Z,0
2017-11-17T01:28:04.665Z,0
2017-11-17T01:29:04.698Z,0
2017-11-17T01:30:04.361Z,0
2017-11-17T01:31:04.943Z,0
2017-11-17T01:32:04.863Z,0
2017-11-17T01:33:04.845Z,0
2017-11-17T01:34:05.105Z,0
2017-11-17T01:35:04.853Z,0
2017-11-17T01:36:04.532Z,0
2017-11-17T01:37:04.787Z,0
2017-11-17T01:38:04.802Z,0
2017-11-17T01:39:05.070Z,0
2017-11-17T01:40:04.458Z,0
2017-11-17T01:41:04.444Z,0
2017-11-17T01:42:04.696Z,0
2017-11-17T01:43:03.862Z,0
2017-11-17T01:44:04.710Z,0
2017-11-17T01:45:04.375Z,0
2017-11-17T01:46:04.900Z,0
2017-11-17T01:47:04.334Z,0
2017-11-17T01:48:04.322Z,0
2017-11-17T01:49:04.304Z,0
2017-11-17T01:50:04.020Z,0
2017-11-17T01:51:04.581Z,0
2017-11-17T01:52:03.977Z,0
2017-11-17T01:53:03.963Z,0
2017-11-17T01:54:04.224Z,0
2017-11-17T01:55:04.199Z,0
2017-11-17T01:56:04.457Z,0
2017-11-17T01:57:03.891Z,0
2017-11-17T01:58:04.148Z,0
2017-11-17T01:59:04.617Z,0
2017-11-17T02:00:03.838Z,0
2017-11-17T02:01:03.829Z,0
2017-11-17T02:02:03.813Z,0
2017-11-17T02:03:04.335Z,0
2017-11-17T02:04:03.777Z,0
2017-11-17T02:05:04.090Z,0
2017-11-17T02:06:04.009Z,0
2017-11-17T02:07:03.990Z,0
2017-11-17T02:08:04.513Z,0
2017-11-17T02:09:03.966Z,0
2017-11-17T02:10:04.214Z,0
2017-11-17T02:11:04.229Z,0
2017-11-17T02:12:04.176Z,0
2017-11-17T02:13:04.443Z,0
2017-11-17T02:14:03.602Z,0
2017-11-17T02:15:03.651Z,0
2017-11-17T02:16:04.110Z,0
2017-11-17T02:17:03.825Z,0
2017-11-17T02:18:03.799Z,0
2017-11-17T02:19:04.366Z,0
2017-11-17T02:20:04.037Z,0
2017-11-17T02:21:04.015Z,0
2017-11-17T02:22:04.023Z,0
2017-11-17T02:23:03.713Z,0
2017-11-17T02:24:04.237Z,0
2017-11-17T02:25:03.961Z,0
2017-11-17T02:26:03.929Z,0
2017-11-17T02:27:03.650Z,0
2017-11-17T02:28:03.911Z,0
2017-11-17T02:29:03.890Z,0
2017-11-17T02:30:03.381Z,0
2017-11-17T02:31:03.872Z,0
2017-11-17T02:32:03.569Z,0
2017-11-17T02:33:03.277Z,0
2017-11-17T02:34:03.799Z,0
2017-11-17T02:35:03.512Z,0
2017-11-17T02:36:03.225Z,0
2017-11-17T02:37:04.032Z,0
2017-11-17T02:38:03.739Z,0
2017-11-17T02:39:03.713Z,0
2017-11-17T02:40:03.431Z,0
2017-11-17T02:41:03.738Z,0
2017-11-17T02:42:03.398Z,0
2017-11-17T02:43:03.381Z,0
2017-11-17T02:44:03.640Z,0
2017-11-17T02:45:03.621Z,0
2017-11-17T02:46:03.075Z,0
2017-11-17T02:47:03.625Z,0
2017-11-17T02:48:03.296Z,0
2017-11-17T02:49:03.821Z,0
2017-11-17T02:50:03.534Z,0
2017-11-17T02:51:03.509Z,0
2017-11-17T02:52:03.234Z,0
2017-11-17T02:53:03.469Z,0
2017-11-17T02:54:03.485Z,0
2017-11-17T02:55:03.172Z,0
2017-11-17T02:56:02.927Z,0
2017-11-17T02:57:03.393Z,0
2017-11-17T02:58:03.136Z,0
2017-11-17T02:59:03.101Z,0
2017-11-17T03:00:03.092Z,0
2017-11-17T03:01:03.337Z,0
2017-11-17T03:02:03.067Z,0
2017-11-17T03:03:02.761Z,0
2017-11-17T03:04:03.561Z,0
2017-11-17T03:05:03.276Z,0
2017-11-17T03:06:03.258Z,0
2017-11-17T03:07:03.506Z,0
2017-11-17T03:08:03.208Z,0
2017-11-17T03:09:02.663Z,0
2017-11-17T03:10:03.175Z,0
2017-11-17T03:11:02.947Z,0
2017-11-17T03:12:02.873Z,0
2017-11-17T03:13:03.129Z,0
2017-11-17T03:14:03.381Z,0
2017-11-17T03:15:02.551Z,0
2017-11-17T03:16:03.085Z,0
2017-11-17T03:17:02.789Z,0
2017-11-17T03:18:02.808Z,0
2017-11-17T03:19:03.021Z,0
2017-11-17T03:20:03.008Z,0
2017-11-17T03:21:02.235Z,0
2017-11-17T03:22:02.965Z,0
2017-11-17T03:23:02.689Z,0
2017-11-17T03:24:02.671Z,0
2017-11-17T03:25:02.652Z,0
2017-11-17T03:26:03.169Z,0
2017-11-17T03:27:02.619Z,0
2017-11-17T03:28:03.142Z,0
2017-11-17T03:29:02.854Z,0
2017-11-17T03:30:02.855Z,0
2017-11-17T03:31:03.137Z,0
2017-11-17T03:32:02.272Z,0
2017-11-17T03:33:03.076Z,0
2017-11-17T03:34:02.217Z,0
2017-11-17T03:35:02.746Z,0
2017-11-17T03:36:03.005Z,0
2017-11-17T03:37:02.495Z,0
2017-11-17T03:38:02.155Z,0
2017-11-17T03:39:02.411Z,0
2017-11-17T03:40:02.395Z,0
2017-11-17T03:41:02.096Z,0
2017-11-17T03:42:02.357Z,0
2017-11-17T03:43:02.611Z,0
2017-11-17T03:44:02.583Z,0
2017-11-17T03:45:02.299Z,0
2017-11-17T03:46:02.553Z,0
2017-11-17T03:47:02.268Z,0
2017-11-17T03:48:02.783Z,0
2017-11-17T03:49:02.248Z,0
2017-11-17T03:50:02.480Z,0
2017-11-17T03:51:02.190Z,0
2017-11-17T03:52:02.226Z,0
2017-11-17T03:53:02.453Z,0
2017-11-17T03:54:01.868Z,0
2017-11-17T03:55:01.856Z,0
2017-11-17T03:56:01.565Z,0
2017-11-17T03:57:02.090Z,0
2017-11-17T03:58:02.607Z,0
2017-11-17T03:59:02.261Z,0
2017-11-17T04:00:01.767Z,0
2017-11-17T04:01:02.021Z,0
2017-11-17T04:02:02.326Z,0
2017-11-17T04:03:02.257Z,0
2017-11-17T04:04:01.693Z,0
2017-11-17T04:05:02.230Z,0
2017-11-17T04:06:02.195Z,0
2017-11-17T04:07:02.182Z,0
2017-11-17T04:08:01.626Z,0
2017-11-17T04:09:02.149Z,0
2017-11-17T04:10:01.859Z,0
2017-11-17T04:11:01.847Z,0
2017-11-17T04:12:02.092Z,0
2017-11-17T04:13:01.801Z,0
2017-11-17T04:14:02.370Z,0
2017-11-17T04:15:02.043Z,0
2017-11-17T04:16:02.301Z,0
2017-11-17T04:17:02.091Z,0
2017-11-17T04:18:01.719Z,0
2017-11-17T04:19:01.423Z,0
2017-11-17T04:20:01.952Z,0
2017-11-17T04:21:01.417Z,0
2017-11-17T04:22:01.387Z,0
2017-11-17T04:23:01.629Z,0
2017-11-17T04:24:01.936Z,0
2017-11-17T04:25:01.325Z,0
2017-11-17T04:26:01.578Z,0
2017-11-17T04:27:01.872Z,0
2017-11-17T04:28:01.534Z,0
2017-11-17T04:29:01.512Z,0
2017-11-17T04:30:01.259Z,0
2017-11-17T04:31:01.484Z,0
2017-11-17T04:32:01.469Z,0
2017-11-17T04:33:01.179Z,0
2017-11-17T04:34:01.961Z,0
2017-11-17T04:35:01.682Z,0
2017-11-17T04:36:01.395Z,0
2017-11-17T04:37:01.648Z,0
2017-11-17T04:38:01.628Z,0
2017-11-17T04:39:01.343Z,0
2017-11-17T04:40:01.326Z,0
2017-11-17T04:41:01.570Z,0
2017-11-17T04:42:01.274Z,0
2017-11-17T04:43:00.990Z,0
2017-11-17T04:44:01.521Z,0
2017-11-17T04:45:01.224Z,0
2017-11-17T04:46:01.743Z,0
2017-11-17T04:47:00.917Z,0
2017-11-17T04:48:00.903Z,0
2017-11-17T04:49:01.475Z,0
2017-11-17T04:50:01.409Z,0
2017-11-17T04:51:01.163Z,0
2017-11-17T04:52:01.376Z,0
2017-11-17T04:53:01.080Z,0
2017-11-17T04:54:00.790Z,0
2017-11-17T04:55:00.777Z,0
2017-11-17T04:56:01.572Z,0
2017-11-17T04:57:00.997Z,0
2017-11-17T04:58:01.627Z,0
2017-11-17T04:59:00.960Z,0
2017-11-17T05:00:00.957Z,0
2017-11-17T05:01:01.224Z,0
2017-11-17T05:02:00.641Z,0
2017-11-17T05:03:01.160Z,0
2017-11-17T05:04:01.152Z,0
2017-11-17T05:05:00.851Z,0
2017-11-17T05:06:01.126Z,0
2017-11-17T05:07:01.368Z,0
2017-11-17T05:08:00.572Z,0
2017-11-17T05:09:00.234Z,0
2017-11-17T05:10:00.774Z,0
2017-11-17T05:11:01.012Z,0
2017-11-17T05:12:00.988Z,0
2017-11-17T05:13:00.757Z,0
2017-11-17T05:14:00.949Z,0
2017-11-17T05:15:00.949Z,0
2017-11-17T05:16:00.647Z,0
2017-11-17T05:17:00.359Z,0
2017-11-17T05:18:00.869Z,0
2017-11-17T05:19:00.857Z,0
2017-11-17T05:20:00.847Z,0
2017-11-17T05:21:00.829Z,0
2017-11-17T05:22:00.532Z,0
2017-11-17T05:23:00.782Z,0
2017-11-17T05:24:00.813Z,0
2017-11-17T05:25:01.042Z,0
2017-11-17T05:26:00.733Z,0
2017-11-17T05:27:00.433Z,0
2017-11-17T05:28:00.148Z,0
2017-11-17T05:29:00.684Z,0
2017-11-17T05:30:00.920Z,0
2017-11-17T05:31:00.629Z,0
2017-11-17T05:32:00.066Z,0
2017-11-17T05:33:00.597Z,0
2017-11-17T05:34:00.616Z,0
2017-11-17T05:35:00.008Z,0
2017-11-17T05:36:00.260Z,0
2017-11-17T05:37:00.513Z,0
2017-11-17T05:38:00.490Z,0
2017-11-17T05:39:00.203Z,0
2017-11-17T05:40:00.192Z,0
2017-11-17T05:41:00.441Z,0
2017-11-17T05:42:00.159Z,0
2017-11-17T05:43:00.165Z,0
2017-11-17T05:44:00.652Z,0
2017-11-17T05:44:59.824Z,0
2017-11-17T05:45:59.536Z,0
2017-11-17T05:47:00.615Z,0
2017-11-17T05:48:00.305Z,0
2017-11-17T05:49:00.600Z,0
2017-11-17T05:50:00.546Z,0
2017-11-17T05:50:59.978Z,0
2017-11-17T05:52:00.502Z,0
2017-11-17T05:53:00.481Z,0
2017-11-17T05:53:59.916Z,0
2017-11-17T05:54:59.622Z,0
2017-11-17T05:56:00.441Z,0
2017-11-17T05:56:59.856Z,0
2017-11-17T05:57:59.859Z,0
2017-11-17T05:58:59.755Z,0
2017-11-17T05:59:59.803Z,0
2017-11-17T06:00:59.508Z,0
2017-11-17T06:02:00.025Z,0
2017-11-17T06:03:00.010Z,0
2017-11-17T06:03:59.714Z,0
2017-11-17T06:04:59.980Z,0
2017-11-17T06:05:59.428Z,0
2017-11-17T06:06:59.391Z,0
2017-11-17T06:07:59.925Z,0
2017-11-17T06:08:59.903Z,0
2017-11-17T06:10:00.156Z,0
2017-11-17T06:10:59.317Z,0
2017-11-17T06:11:59.572Z,0
2017-11-17T06:12:59.840Z,0
2017-11-17T06:13:59.532Z,0
2017-11-17T06:14:59.244Z,0
2017-11-17T06:15:58.942Z,0
2017-11-17T06:16:59.197Z,0
2017-11-17T06:17:59.445Z,0
2017-11-17T06:18:59.424Z,0
2017-11-17T06:19:59.674Z,0
2017-11-17T06:20:59.385Z,0
2017-11-17T06:21:59.904Z,0
2017-11-17T06:22:59.094Z,0
2017-11-17T06:23:59.329Z,0
2017-11-17T06:24:59.043Z,0
2017-11-17T06:25:59.557Z,0
2017-11-17T06:26:58.994Z,0
2017-11-17T06:27:59.515Z,0
2017-11-17T06:28:59.494Z,0
2017-11-17T06:29:59.743Z,0
2017-11-17T06:30:59.454Z,0
2017-11-17T06:31:59.175Z,0
2017-11-17T06:32:59.424Z,0
2017-11-17T06:33:59.405Z,0
2017-11-17T06:34:58.844Z,0
2017-11-17T06:35:59.355Z,0
2017-11-17T06:36:59.336Z,0
2017-11-17T06:37:59.314Z,0
2017-11-17T06:38:59.029Z,0
2017-11-17T06:39:59.002Z,0
2017-11-17T06:40:59.253Z,0
2017-11-17T06:41:58.428Z,0
2017-11-17T06:42:58.957Z,0
2017-11-17T06:43:59.478Z,0
2017-11-17T06:44:58.370Z,0
2017-11-17T06:45:58.624Z,0
2017-11-17T06:46:58.601Z,0
2017-11-17T06:47:58.579Z,0
2017-11-17T06:48:59.099Z,0
2017-11-17T06:49:59.077Z,0
2017-11-17T06:50:59.073Z,5
2017-11-17T06:51:58.492Z,5
2017-11-17T06:52:58.204Z,5
2017-11-17T06:53:58.729Z,5
2017-11-17T06:54:58.979Z,5
2017-11-17T06:55:58.678Z,5
2017-11-17T06:56:58.401Z,5
2017-11-17T06:57:58.927Z,5
2017-11-17T06:58:58.620Z,5
2017-11-17T06:59:58.596Z,5
2017-11-17T07:00:58.583Z,5
2017-11-17T07:01:58.287Z,10
2017-11-17T07:02:59.077Z,10
2017-11-17T07:03:58.788Z,10
2017-11-17T07:04:58.770Z,10
2017-11-17T07:05:58.750Z,10
2017-11-17T07:06:58.458Z,10
2017-11-17T07:07:58.163Z,10
2017-11-17T07:08:58.431Z,10
2017-11-17T07:09:58.124Z,15
2017-11-17T07:10:57.834Z,15
2017-11-17T07:11:58.892Z,15
2017-11-17T07:12:58.345Z,15
2017-11-17T07:13:58.584Z,15
2017-11-17T07:14:58.024Z,15
2017-11-17T07:15:58.003Z,15
2017-11-17T07:16:58.253Z,15
2017-11-17T07:17:58.232Z,20
2017-11-17T07:18:58.482Z,20
2017-11-17T07:19:57.920Z,20
2017-11-17T07:20:58.218Z,20
2017-11-17T07:21:58.150Z,20
2017-11-17T07:22:58.133Z,20
2017-11-17T07:23:58.117Z,20
2017-11-17T07:24:57.830Z,25
2017-11-17T07:25:58.346Z,25
2017-11-17T07:26:58.325Z,25
2017-11-17T07:27:58.569Z,25
2017-11-17T07:28:58.278Z,25
2017-11-17T07:29:58.250Z,25
2017-11-17T07:30:58.513Z,30
2017-11-17T07:31:58.488Z,30
2017-11-17T07:32:58.193Z,30
2017-11-17T07:33:57.905Z,30
2017-11-17T07:34:57.883Z,30
2017-11-17T07:35:58.181Z,30
2017-11-17T07:36:58.123Z,30
2017-11-17T07:37:57.819Z,30
2017-11-17T07:38:57.272Z,35
2017-11-17T07:39:57.791Z,35
2017-11-17T07:40:57.768Z,35
2017-11-17T07:41:57.757Z,35
2017-11-17T07:42:57.721Z,35
2017-11-17T07:43:57.975Z,35
2017-11-17T07:44:57.953Z,35
2017-11-17T07:45:58.203Z,40
2017-11-17T07:46:57.644Z,40
2017-11-17T07:47:57.345Z,40
2017-11-17T07:48:57.057Z,40
2017-11-17T07:49:57.582Z,40
2017-11-17T07:50:57.893Z,45
2017-11-17T07:51:57.260Z,50
2017-11-17T07:52:57.249Z,50
2017-11-17T07:53:56.963Z,50
2017-11-17T07:54:57.471Z,50
2017-11-17T07:55:57.192Z,55
2017-11-17T07:56:57.214Z,55
2017-11-17T07:57:57.690Z,55
2017-11-17T07:58:57.886Z,55
2017-11-17T07:59:57.111Z,55
2017-11-17T08:00:57.631Z,55
2017-11-17T08:01:57.604Z,60
2017-11-17T08:02:57.582Z,60
2017-11-17T08:03:57.018Z,65
2017-11-17T08:04:57.813Z,60
2017-11-17T08:05:57.524Z,60
2017-11-17T08:06:56.691Z,60
2017-11-17T08:07:57.203Z,60
2017-11-17T08:08:57.457Z,65
2017-11-17T08:09:57.715Z,65
2017-11-17T08:10:57.155Z,65
2017-11-17T08:11:57.665Z,65
2017-11-17T08:12:57.110Z,70
2017-11-17T08:13:57.364Z,75
2017-11-17T08:14:57.068Z,70
2017-11-17T08:15:57.049Z,85
2017-11-17T08:16:57.301Z,80
2017-11-17T08:17:57.006Z,85
2017-11-17T08:18:56.447Z,80
2017-11-17T08:19:57.239Z,80
2017-11-17T08:20:57.493Z,85
2017-11-17T08:21:56.924Z,75
2017-11-17T08:22:56.919Z,75
2017-11-17T08:23:56.883Z,85
2017-11-17T08:24:57.134Z,75
2017-11-17T08:25:56.865Z,70
2017-11-17T08:26:56.824Z,70
2017-11-17T08:27:56.554Z,70
2017-11-17T08:28:57.328Z,70
2017-11-17T08:29:56.765Z,70
2017-11-17T08:30:56.748Z,70
2017-11-17T08:31:57.006Z,70
2017-11-17T08:32:56.717Z,70
2017-11-17T08:33:56.963Z,70
2017-11-17T08:34:56.665Z,75
2017-11-17T08:35:56.649Z,70
2017-11-17T08:36:57.175Z,75
2017-11-17T08:37:56.627Z,75
2017-11-17T08:38:56.588Z,75
2017-11-17T08:39:56.315Z,75
2017-11-17T08:40:56.827Z,75
2017-11-17T08:41:56.262Z,75
2017-11-17T08:42:56.503Z,75
2017-11-17T08:43:56.499Z,75
2017-11-17T08:44:56.201Z,75
2017-11-17T08:45:56.451Z,75
2017-11-17T08:46:56.702Z,75
2017-11-17T08:47:56.137Z,75
2017-11-17T08:48:56.420Z,75
2017-11-17T08:49:56.377Z,75
2017-11-17T08:50:56.374Z,75
2017-11-17T08:51:56.061Z,75
2017-11-17T08:52:56.603Z,75
2017-11-17T08:53:56.829Z,75
2017-11-17T08:54:56.537Z,80
2017-11-17T08:55:56.524Z,80
2017-11-17T08:56:56.499Z,80
2017-11-17T08:57:56.491Z,80
2017-11-17T08:58:56.466Z,80
2017-11-17T08:59:56.446Z,80
2017-11-17T09:00:56.694Z,80
2017-11-17T09:01:56.672Z,80
2017-11-17T09:02:56.395Z,80
2017-11-17T09:03:56.108Z,85
2017-11-17T09:04:56.622Z,85
2017-11-17T09:05:56.056Z,85
2017-11-17T09:06:56.037Z,85
2017-11-17T09:07:55.752Z,85
2017-11-17T09:08:55.991Z,90
2017-11-17T09:09:55.709Z,90
2017-11-17T09:10:55.959Z,90
2017-11-17T09:11:55.949Z,90
2017-11-17T09:12:55.920Z,90
2017-11-17T09:13:55.623Z,95
2017-11-17T09:14:56.153Z,95
2017-11-17T09:15:56.388Z,105
2017-11-17T09:16:55.565Z,115
2017-11-17T09:17:56.386Z,160
2017-11-17T09:18:56.349Z,160
2017-11-17T09:19:56.062Z,110
2017-11-17T09:20:56.029Z,110
2017-11-17T09:21:55.743Z,130
2017-11-17T09:22:55.990Z,160
2017-11-17T09:23:55.977Z,215
2017-11-17T09:24:56.233Z,290
2017-11-17T09:25:55.423Z,340
2017-11-17T09:26:55.406Z,320
2017-11-17T09:27:55.905Z,220
2017-11-17T09:28:55.892Z,120
2017-11-17T09:29:56.134Z,115
2017-11-17T09:30:55.859Z,115
2017-11-17T09:31:55.832Z,110
2017-11-17T09:32:55.885Z,110
2017-11-17T09:33:54.979Z,110
2017-11-17T09:34:55.245Z,165
2017-11-17T09:35:55.777Z,245
2017-11-17T09:36:55.480Z,310
2017-11-17T09:37:56.003Z,320
2017-11-17T09:38:55.712Z,280
2017-11-17T09:39:55.691Z,330
2017-11-17T09:40:55.405Z,275
2017-11-17T09:41:55.654Z,205
2017-11-17T09:42:55.376Z,190
2017-11-17T09:43:55.629Z,245
2017-11-17T09:44:55.878Z,255
2017-11-17T09:45:55.596Z,225
2017-11-17T09:46:55.305Z,210
2017-11-17T09:47:55.556Z,185
2017-11-17T09:48:55.546Z,165
2017-11-17T09:49:55.269Z,140
2017-11-17T09:50:55.835Z,135
2017-11-17T09:51:55.234Z,140
2017-11-17T09:52:54.950Z,155
2017-11-17T09:53:55.462Z,185
2017-11-17T09:54:55.186Z,255
2017-11-17T09:55:54.620Z,335
2017-11-17T09:56:54.608Z,330
2017-11-17T09:57:55.408Z,310
2017-11-17T09:58:55.312Z,260
2017-11-17T09:59:55.101Z,230
2017-11-17T10:00:55.092Z,240
2017-11-17T10:01:55.072Z,280
2017-11-17T10:02:55.478Z,245
2017-11-17T10:03:55.329Z,210
2017-11-17T10:04:55.037Z,185
2017-11-17T10:05:55.285Z,230
2017-11-17T10:06:55.273Z,270
2017-11-17T10:07:55.548Z,290
2017-11-17T10:08:55.255Z,325
2017-11-17T10:09:55.233Z,315
2017-11-17T10:10:54.679Z,325
2017-11-17T10:11:54.664Z,350
2017-11-17T10:12:55.479Z,335
2017-11-17T10:13:54.957Z,335
2017-11-17T10:14:54.924Z,375
2017-11-17T10:15:55.152Z,385
2017-11-17T10:16:54.872Z,395
2017-11-17T10:17:54.855Z,405
2017-11-17T10:18:55.374Z,370
2017-11-17T10:19:54.839Z,265
2017-11-17T10:20:54.842Z,245
2017-11-17T10:21:54.558Z,275
2017-11-17T10:22:55.073Z,230
2017-11-17T10:23:55.054Z,165
2017-11-17T10:24:55.049Z,165
2017-11-17T10:25:55.017Z,210
2017-11-17T10:26:54.777Z,210
2017-11-17T10:27:55.272Z,155
2017-11-17T10:28:54.711Z,210
2017-11-17T10:29:54.975Z,390
2017-11-17T10:30:54.962Z,400
2017-11-17T10:31:55.242Z,340
2017-11-17T10:32:55.219Z,370
2017-11-17T10:33:54.931Z,345
2017-11-17T10:34:54.914Z,335
2017-11-17T10:35:54.359Z,300
2017-11-17T10:36:54.354Z,315
2017-11-17T10:37:54.880Z,355
2017-11-17T10:38:55.138Z,270
2017-11-17T10:39:54.589Z,285
2017-11-17T10:40:54.591Z,280
2017-11-17T10:41:54.837Z,260
2017-11-17T10:42:54.282Z,275
2017-11-17T10:43:54.548Z,300
2017-11-17T10:44:54.810Z,300
2017-11-17T10:45:54.511Z,260
2017-11-17T10:46:54.782Z,270
2017-11-17T10:47:54.784Z,275
2017-11-17T10:48:54.209Z,350
2017-11-17T10:49:54.199Z,405
2017-11-17T10:50:54.732Z,430
2017-11-17T10:51:54.184Z,460
2017-11-17T10:52:54.453Z,345
2017-11-17T10:53:54.694Z,255
2017-11-17T10:54:54.966Z,240
2017-11-17T10:55:54.149Z,305
2017-11-17T10:56:54.131Z,385
2017-11-17T10:57:54.924Z,425
2017-11-17T10:58:54.655Z,460
2017-11-17T10:59:54.375Z,435
2017-11-17T11:00:54.359Z,350
2017-11-17T11:01:54.349Z,345
2017-11-17T11:02:54.336Z,350
2017-11-17T11:03:54.612Z,390
2017-11-17T11:04:54.875Z,435
2017-11-17T11:05:54.307Z,430
2017-11-17T11:06:54.302Z,380
2017-11-17T11:07:54.025Z,300
2017-11-17T11:08:53.741Z,275
2017-11-17T11:09:54.283Z,275
2017-11-17T11:10:54.540Z,275
2017-11-17T11:11:54.534Z,315
2017-11-17T11:12:54.525Z,305
2017-11-17T11:13:54.513Z,245
2017-11-17T11:14:54.222Z,255
2017-11-17T11:15:54.213Z,250
2017-11-17T11:16:54.208Z,180
2017-11-17T11:17:54.464Z,145
2017-11-17T11:18:53.913Z,145
2017-11-17T11:19:54.447Z,145
2017-11-17T11:20:54.437Z,140
2017-11-17T11:21:53.886Z,140
2017-11-17T11:22:53.877Z,140
2017-11-17T11:23:54.139Z,135
2017-11-17T11:24:54.402Z,135
2017-11-17T11:25:54.118Z,135
2017-11-17T11:26:53.564Z,135
2017-11-17T11:27:54.084Z,135
2017-11-17T11:28:54.358Z,135
2017-11-17T11:29:54.342Z,135
2017-11-17T11:30:54.066Z,135
2017-11-17T11:31:53.776Z,135
2017-11-17T11:32:54.309Z,135
2017-11-17T11:33:54.024Z,135
2017-11-17T11:34:54.006Z,135
2017-11-17T11:35:54.273Z,135
2017-11-17T11:36:53.985Z,140
2017-11-17T11:37:54.243Z,140
2017-11-17T11:38:53.955Z,140
2017-11-17T11:39:54.217Z,145
2017-11-17T11:40:54.210Z,145
2017-11-17T11:41:54.195Z,145
2017-11-17T11:42:54.190Z,145
2017-11-17T11:43:53.380Z,150
2017-11-17T11:44:53.616Z,155
2017-11-17T11:45:54.412Z,160
2017-11-17T11:46:53.586Z,165
2017-11-17T11:47:54.153Z,170
2017-11-17T11:48:53.855Z,180
2017-11-17T11:49:54.102Z,220
2017-11-17T11:50:53.546Z,295
2017-11-17T11:51:54.065Z,425
2017-11-17T11:52:53.523Z,500
2017-11-17T11:53:53.508Z,505
2017-11-17T11:54:53.766Z,515
2017-11-17T11:55:54.039Z,530
2017-11-17T11:56:53.736Z,560
2017-11-17T11:57:53.447Z,585
2017-11-17T11:58:53.843Z,600
2017-11-17T11:59:53.428Z,605
2017-11-17T12:00:54.232Z,610
2017-11-17T12:01:53.946Z,610
2017-11-17T12:02:53.669Z,580
2017-11-17T12:03:53.956Z,285
2017-11-17T12:04:53.926Z,225
2017-11-17T12:05:53.654Z,205
2017-11-17T12:06:53.923Z,180
2017-11-17T12:07:53.357Z,180
2017-11-17T12:08:53.625Z,180
2017-11-17T12:09:53.889Z,205
2017-11-17T12:10:53.621Z,265
2017-11-17T12:11:53.595Z,535
2017-11-17T12:12:54.139Z,370
2017-11-17T12:13:53.856Z,420
2017-11-17T12:14:53.030Z,425
2017-11-17T12:15:53.292Z,255
2017-11-17T12:16:54.101Z,290
2017-11-17T12:17:53.541Z,520
2017-11-17T12:18:53.813Z,565
2017-11-17T12:19:53.536Z,560
2017-11-17T12:20:53.378Z,570
2017-11-17T12:21:53.793Z,575
2017-11-17T12:22:53.245Z,565
2017-11-17T12:23:53.514Z,550
2017-11-17T12:24:53.506Z,555
2017-11-17T12:25:53.783Z,575
2017-11-17T12:26:53.769Z,580
2017-11-17T12:27:53.489Z,570
2017-11-17T12:28:53.471Z,555
2017-11-17T12:29:53.760Z,540
2017-11-17T12:30:53.780Z,530
2017-11-17T12:31:53.474Z,515
2017-11-17T12:32:53.465Z,505
2017-11-17T12:33:53.449Z,490
2017-11-17T12:34:53.185Z,485
2017-11-17T12:35:53.491Z,435
2017-11-17T12:36:53.428Z,485
2017-11-17T12:37:53.158Z,485
2017-11-17T12:38:53.696Z,475
2017-11-17T12:39:53.687Z,465
2017-11-17T12:40:53.441Z,465
2017-11-17T12:41:53.417Z,415
2017-11-17T12:42:53.680Z,120
2017-11-17T12:43:52.873Z,125
2017-11-17T12:44:53.672Z,185
2017-11-17T12:45:53.125Z,150
2017-11-17T12:46:53.938Z,435
2017-11-17T12:47:53.391Z,445
2017-11-17T12:48:53.659Z,455
2017-11-17T12:49:53.375Z,430
2017-11-17T12:50:53.105Z,350
2017-11-17T12:51:53.368Z,465
2017-11-17T12:52:53.363Z,470
2017-11-17T12:53:53.638Z,465
2017-11-17T12:54:53.622Z,175
2017-11-17T12:55:53.625Z,285
2017-11-17T12:56:53.082Z,255
2017-11-17T12:57:52.807Z,155
2017-11-17T12:58:53.347Z,155
2017-11-17T12:59:53.348Z,150
2017-11-17T13:00:53.336Z,165
2017-11-17T13:01:53.864Z,250
2017-11-17T13:02:53.874Z,150
2017-11-17T13:03:53.865Z,155
2017-11-17T13:04:53.047Z,155
2017-11-17T13:05:53.593Z,160
2017-11-17T13:06:53.025Z,165
2017-11-17T13:07:53.563Z,190
2017-11-17T13:08:52.737Z,450
2017-11-17T13:09:53.281Z,455
2017-11-17T13:10:53.271Z,460
2017-11-17T13:11:53.274Z,465
2017-11-17T13:12:53.264Z,470
2017-11-17T13:13:53.261Z,455
2017-11-17T13:14:53.513Z,445
2017-11-17T13:15:53.511Z,420
2017-11-17T13:16:53.509Z,375
2017-11-17T13:17:53.508Z,210
2017-11-17T13:18:53.231Z,205
2017-11-17T13:19:52.951Z,205
2017-11-17T13:20:53.490Z,375
2017-11-17T13:21:53.464Z,380
2017-11-17T13:22:52.925Z,385
2017-11-17T13:23:53.475Z,300
2017-11-17T13:24:53.452Z,220
2017-11-17T13:25:52.930Z,360
2017-11-17T13:26:53.175Z,370
2017-11-17T13:27:52.898Z,365
2017-11-17T13:28:53.457Z,360
2017-11-17T13:29:53.174Z,350
2017-11-17T13:30:53.701Z,340
2017-11-17T13:31:53.141Z,325
2017-11-17T13:32:53.421Z,300
2017-11-17T13:33:53.405Z,280
2017-11-17T13:34:52.582Z,235
2017-11-17T13:35:53.389Z,160
2017-11-17T13:36:53.123Z,130
2017-11-17T13:37:53.382Z,120
2017-11-17T13:38:53.100Z,115
2017-11-17T13:39:53.638Z,110
2017-11-17T13:40:53.365Z,105
2017-11-17T13:41:53.082Z,105
2017-11-17T13:42:52.811Z,100
2017-11-17T13:43:53.335Z,100
2017-11-17T13:44:53.621Z,95
2017-11-17T13:45:53.337Z,95
2017-11-17T13:46:53.048Z,95
2017-11-17T13:47:53.596Z,95
2017-11-17T13:48:52.780Z,100
2017-11-17T13:49:53.036Z,95
2017-11-17T13:50:52.760Z,95
2017-11-17T13:51:52.812Z,90
2017-11-17T13:52:53.001Z,90
2017-11-17T13:53:53.002Z,90
2017-11-17T13:54:53.533Z,90
2017-11-17T13:55:53.267Z,90
2017-11-17T13:56:52.978Z,85
2017-11-17T13:57:53.233Z,90
2017-11-17T13:58:53.825Z,90
2017-11-17T13:59:52.822Z,90
2017-11-17T14:00:52.671Z,90
2017-11-17T14:01:52.930Z,85
2017-11-17T14:02:52.639Z,85
2017-11-17T14:03:53.188Z,85
2017-11-17T14:04:53.159Z,85
2017-11-17T14:05:53.158Z,85
2017-11-17T14:06:53.426Z,80
2017-11-17T14:07:53.127Z,80
2017-11-17T14:08:53.128Z,80
2017-11-17T14:09:52.839Z,80
2017-11-17T14:10:53.108Z,80
2017-11-17T14:11:52.815Z,80
2017-11-17T14:12:52.799Z,80
2017-11-17T14:13:52.793Z,80
2017-11-17T14:14:52.780Z,80
2017-11-17T14:15:53.068Z,80
2017-11-17T14:16:52.477Z,80
2017-11-17T14:17:52.732Z,75
2017-11-17T14:18:52.742Z,75
2017-11-17T14:19:52.708Z,75
2017-11-17T14:20:53.247Z,70